Buna, Texas
Current Conditions -  °F | °C
As of 10:35 PM on Saturday 20 Dec 2014 (Local Time) from KORG Reporting Station
Clear Clear  
Wind Chill: 45°   Ceiling: Unl
Heat Index: 47°   Visibility: 10mi
Dew Point: 45°   Wind: 5mph
Humidity: 93%   Direction: 10°N
Pressure: 30.2"   Gusts: NA
Location:  30.43°N, 93.97°W
Report Text: KORG 210435Z AUTO 01004KT 10SM CLR 08/07 A3020 RMK AO2 T00840073
Loading
Personal Weather Stations






























Interactive Weather Map New forecast layout! Learn more

10-Day Weather Forecast

Advertisements
Track Severe Weather on mobile